sensor_id;sensor_type;location;lat;lon;timestamp;P1;durP1;ratioP1;P2;durP2;ratioP2
43560;SDS011;32305;46.410;17.394;2023-02-25T00:00:33;1.50;;;1.40;;
43560;SDS011;32305;46.410;17.394;2023-02-25T00:03:00;1.58;;;1.40;;
43560;SDS011;32305;46.410;17.394;2023-02-25T00:05:28;1.45;;;1.35;;
43560;SDS011;32305;46.410;17.394;2023-02-25T00:07:57;1.40;;;1.30;;
43560;SDS011;32305;46.410;17.394;2023-02-25T00:10:25;2.78;;;2.00;;
43560;SDS011;32305;46.410;17.394;2023-02-25T00:12:52;1.50;;;1.40;;
43560;SDS011;32305;46.410;17.394;2023-02-25T00:15:19;1.48;;;1.38;;
43560;SDS011;32305;46.410;17.394;2023-02-25T00:17:46;2.78;;;1.80;;
43560;SDS011;32305;46.410;17.394;2023-02-25T00:20:15;3.67;;;1.50;;
43560;SDS011;32305;46.410;17.394;2023-02-25T00:22:46;1.70;;;1.60;;
43560;SDS011;32305;46.410;17.394;2023-02-25T00:25:14;1.77;;;1.30;;
43560;SDS011;32305;46.410;17.394;2023-02-25T00:27:44;1.35;;;1.25;;
43560;SDS011;32305;46.410;17.394;2023-02-25T00:30:11;1.50;;;1.27;;
43560;SDS011;32305;46.410;17.394;2023-02-25T00:32:38;3.05;;;1.40;;
43560;SDS011;32305;46.410;17.394;2023-02-25T00:35:06;1.52;;;1.42;;
43560;SDS011;32305;46.410;17.394;2023-02-25T00:37:37;1.80;;;1.70;;
43560;SDS011;32305;46.410;17.394;2023-02-25T00:40:05;1.55;;;1.45;;
43560;SDS011;32305;46.410;17.394;2023-02-25T00:42:43;1.52;;;1.40;;
43560;SDS011;32305;46.410;17.394;2023-02-25T00:45:10;1.65;;;1.55;;
43560;SDS011;32305;46.410;17.394;2023-02-25T00:47:38;4.60;;;1.60;;
43560;SDS011;32305;46.410;17.394;2023-02-25T00:50:06;1.80;;;1.70;;
43560;SDS011;32305;46.410;17.394;2023-02-25T00:52:35;1.65;;;1.50;;
43560;SDS011;32305;46.410;17.394;2023-02-25T00:55:04;1.60;;;1.42;;
43560;SDS011;32305;46.410;17.394;2023-02-25T00:57:32;2.67;;;1.50;;
43560;SDS011;32305;46.410;17.394;2023-02-25T00:59:59;3.42;;;1.70;;
43560;SDS011;32305;46.410;17.394;2023-02-25T01:02:26;1.73;;;1.63;;
43560;SDS011;32305;46.410;17.394;2023-02-25T01:04:54;1.45;;;1.35;;
43560;SDS011;32305;46.410;17.394;2023-02-25T01:07:21;1.63;;;1.52;;
43560;SDS011;32305;46.410;17.394;2023-02-25T01:09:48;1.85;;;1.50;;
43560;SDS011;32305;46.410;17.394;2023-02-25T01:12:15;1.75;;;1.55;;
43560;SDS011;32305;46.410;17.394;2023-02-25T01:14:42;1.90;;;1.80;;
43560;SDS011;32305;46.410;17.394;2023-02-25T01:17:10;1.80;;;1.60;;
43560;SDS011;32305;46.410;17.394;2023-02-25T01:19:37;1.85;;;1.75;;
43560;SDS011;32305;46.410;17.394;2023-02-25T01:22:04;1.70;;;1.58;;
43560;SDS011;32305;46.410;17.394;2023-02-25T01:24:32;1.83;;;1.52;;
43560;SDS011;32305;46.410;17.394;2023-02-25T01:27:00;1.85;;;1.55;;
43560;SDS011;32305;46.410;17.394;2023-02-25T01:29:31;2.05;;;1.50;;
43560;SDS011;32305;46.410;17.394;2023-02-25T01:32:05;1.50;;;1.40;;
43560;SDS011;32305;46.410;17.394;2023-02-25T01:34:35;2.85;;;1.58;;
43560;SDS011;32305;46.410;17.394;2023-02-25T01:37:05;1.83;;;1.40;;
43560;SDS011;32305;46.410;17.394;2023-02-25T01:39:32;1.58;;;1.48;;
43560;SDS011;32305;46.410;17.394;2023-02-25T01:42:01;2.55;;;1.83;;
43560;SDS011;32305;46.410;17.394;2023-02-25T01:44:31;1.92;;;1.58;;
43560;SDS011;32305;46.410;17.394;2023-02-25T01:47:00;1.90;;;1.80;;
43560;SDS011;32305;46.410;17.394;2023-02-25T01:49:30;2.08;;;1.35;;
43560;SDS011;32305;46.410;17.394;2023-02-25T01:52:12;2.47;;;1.92;;
43560;SDS011;32305;46.410;17.394;2023-02-25T01:54:44;1.38;;;1.30;;
43560;SDS011;32305;46.410;17.394;2023-02-25T01:57:16;4.18;;;2.15;;
43560;SDS011;32305;46.410;17.394;2023-02-25T01:59:44;2.05;;;1.38;;
43560;SDS011;32305;46.410;17.394;2023-02-25T02:02:14;1.40;;;1.30;;
43560;SDS011;32305;46.410;17.394;2023-02-25T02:04:44;1.65;;;1.55;;
43560;SDS011;32305;46.410;17.394;2023-02-25T02:07:15;2.55;;;1.63;;
43560;SDS011;32305;46.410;17.394;2023-02-25T02:09:44;1.60;;;1.50;;
43560;SDS011;32305;46.410;17.394;2023-02-25T02:12:25;2.53;;;1.45;;
43560;SDS011;32305;46.410;17.394;2023-02-25T02:15:00;2.35;;;1.77;;
43560;SDS011;32305;46.410;17.394;2023-02-25T02:17:32;2.30;;;1.60;;
43560;SDS011;32305;46.410;17.394;2023-02-25T02:20:17;4.78;;;1.45;;
43560;SDS011;32305;46.410;17.394;2023-02-25T02:25:55;3.15;;;2.10;;
43560;SDS011;32305;46.410;17.394;2023-02-25T02:28:55;1.55;;;1.45;;
43560;SDS011;32305;46.410;17.394;2023-02-25T02:31:50;1.80;;;1.58;;
43560;SDS011;32305;46.410;17.394;2023-02-25T02:40:46;1.30;;;1.30;;
43560;SDS011;32305;46.410;17.394;2023-02-25T02:43:43;1.60;;;1.50;;
43560;SDS011;32305;46.410;17.394;2023-02-25T02:46:18;1.63;;;1.50;;
43560;SDS011;32305;46.410;17.394;2023-02-25T02:48:57;1.73;;;1.63;;
43560;SDS011;32305;46.410;17.394;2023-02-25T02:51:38;2.17;;;1.67;;
43560;SDS011;32305;46.410;17.394;2023-02-25T02:54:11;1.63;;;1.52;;
43560;SDS011;32305;46.410;17.394;2023-02-25T02:56:41;1.80;;;1.70;;
43560;SDS011;32305;46.410;17.394;2023-02-25T02:59:18;1.65;;;1.27;;
43560;SDS011;32305;46.410;17.394;2023-02-25T03:01:56;1.65;;;1.55;;
43560;SDS011;32305;46.410;17.394;2023-02-25T03:04:32;1.45;;;1.00;;
43560;SDS011;32305;46.410;17.394;2023-02-25T03:07:04;2.22;;;2.03;;
43560;SDS011;32305;46.410;17.394;2023-02-25T03:09:42;1.10;;;1.10;;
43560;SDS011;32305;46.410;17.394;2023-02-25T03:12:13;1.83;;;1.70;;
43560;SDS011;32305;46.410;17.394;2023-02-25T03:14:41;1.45;;;1.35;;
43560;SDS011;32305;46.410;17.394;2023-02-25T03:17:19;1.60;;;1.50;;
43560;SDS011;32305;46.410;17.394;2023-02-25T03:19:54;1.40;;;1.30;;
43560;SDS011;32305;46.410;17.394;2023-02-25T03:22:32;1.38;;;1.00;;
43560;SDS011;32305;46.410;17.394;2023-02-25T03:25:16;2.05;;;1.20;;
43560;SDS011;32305;46.410;17.394;2023-02-25T03:27:58;2.22;;;1.67;;
43560;SDS011;32305;46.410;17.394;2023-02-25T03:30:37;3.67;;;1.60;;
43560;SDS011;32305;46.410;17.394;2023-02-25T03:33:25;1.85;;;1.73;;
43560;SDS011;32305;46.410;17.394;2023-02-25T03:36:16;1.85;;;1.60;;
43560;SDS011;32305;46.410;17.394;2023-02-25T03:38:49;1.40;;;1.30;;
43560;SDS011;32305;46.410;17.394;2023-02-25T03:41:19;1.50;;;1.40;;
43560;SDS011;32305;46.410;17.394;2023-02-25T03:43:52;2.03;;;1.50;;
43560;SDS011;32305;46.410;17.394;2023-02-25T03:46:22;2.05;;;1.30;;
43560;SDS011;32305;46.410;17.394;2023-02-25T03:48:51;1.90;;;1.70;;
43560;SDS011;32305;46.410;17.394;2023-02-25T03:51:22;1.90;;;1.70;;
43560;SDS011;32305;46.410;17.394;2023-02-25T03:53:54;1.70;;;1.60;;
43560;SDS011;32305;46.410;17.394;2023-02-25T03:56:21;1.40;;;1.30;;
43560;SDS011;32305;46.410;17.394;2023-02-25T03:58:49;1.50;;;1.40;;
43560;SDS011;32305;46.410;17.394;2023-02-25T04:01:23;2.00;;;1.30;;
43560;SDS011;32305;46.410;17.394;2023-02-25T04:03:53;1.45;;;1.35;;
43560;SDS011;32305;46.410;17.394;2023-02-25T04:06:21;1.52;;;1.42;;
43560;SDS011;32305;46.410;17.394;2023-02-25T04:08:49;1.23;;;1.13;;
43560;SDS011;32305;46.410;17.394;2023-02-25T04:11:17;1.60;;;1.50;;
43560;SDS011;32305;46.410;17.394;2023-02-25T04:13:44;1.60;;;1.50;;
43560;SDS011;32305;46.410;17.394;2023-02-25T04:16:11;3.55;;;2.10;;
43560;SDS011;32305;46.410;17.394;2023-02-25T04:18:39;2.50;;;1.55;;
43560;SDS011;32305;46.410;17.394;2023-02-25T04:21:07;1.70;;;1.60;;
43560;SDS011;32305;46.410;17.394;2023-02-25T04:23:35;1.50;;;1.30;;
43560;SDS011;32305;46.410;17.394;2023-02-25T04:26:02;4.28;;;1.50;;
43560;SDS011;32305;46.410;17.394;2023-02-25T04:28:29;1.45;;;1.35;;
43560;SDS011;32305;46.410;17.394;2023-02-25T04:30:56;1.55;;;1.42;;
43560;SDS011;32305;46.410;17.394;2023-02-25T04:33:24;3.72;;;1.15;;
43560;SDS011;32305;46.410;17.394;2023-02-25T04:35:51;1.50;;;1.40;;
43560;SDS011;32305;46.410;17.394;2023-02-25T04:38:18;1.50;;;1.40;;
43560;SDS011;32305;46.410;17.394;2023-02-25T04:40:45;1.70;;;1.60;;
43560;SDS011;32305;46.410;17.394;2023-02-25T04:43:12;1.88;;;1.77;;
43560;SDS011;32305;46.410;17.394;2023-02-25T04:45:39;1.20;;;1.10;;
43560;SDS011;32305;46.410;17.394;2023-02-25T04:48:06;1.52;;;1.23;;
43560;SDS011;32305;46.410;17.394;2023-02-25T04:50:34;2.55;;;1.42;;
43560;SDS011;32305;46.410;17.394;2023-02-25T04:53:01;2.05;;;1.40;;
43560;SDS011;32305;46.410;17.394;2023-02-25T04:55:28;2.20;;;1.33;;
43560;SDS011;32305;46.410;17.394;2023-02-25T04:57:56;1.73;;;1.60;;
43560;SDS011;32305;46.410;17.394;2023-02-25T05:00:23;1.40;;;1.30;;
43560;SDS011;32305;46.410;17.394;2023-02-25T05:02:52;2.65;;;1.50;;
43560;SDS011;32305;46.410;17.394;2023-02-25T05:05:19;1.55;;;1.45;;
43560;SDS011;32305;46.410;17.394;2023-02-25T05:07:46;1.90;;;1.50;;
43560;SDS011;32305;46.410;17.394;2023-02-25T05:10:14;1.30;;;1.20;;
43560;SDS011;32305;46.410;17.394;2023-02-25T05:12:41;1.50;;;1.40;;
43560;SDS011;32305;46.410;17.394;2023-02-25T05:15:08;1.50;;;1.27;;
43560;SDS011;32305;46.410;17.394;2023-02-25T05:17:37;2.42;;;1.50;;
43560;SDS011;32305;46.410;17.394;2023-02-25T05:20:04;1.40;;;1.30;;
43560;SDS011;32305;46.410;17.394;2023-02-25T05:22:37;2.33;;;1.42;;
43560;SDS011;32305;46.410;17.394;2023-02-25T05:25:05;1.55;;;1.40;;
43560;SDS011;32305;46.410;17.394;2023-02-25T05:27:33;1.25;;;1.15;;
43560;SDS011;32305;46.410;17.394;2023-02-25T05:30:00;1.85;;;1.65;;
43560;SDS011;32305;46.410;17.394;2023-02-25T05:32:31;1.52;;;1.30;;
43560;SDS011;32305;46.410;17.394;2023-02-25T05:37:25;1.50;;;1.25;;
43560;SDS011;32305;46.410;17.394;2023-02-25T05:39:53;1.70;;;1.58;;
43560;SDS011;32305;46.410;17.394;2023-02-25T05:42:20;3.25;;;1.30;;
43560;SDS011;32305;46.410;17.394;2023-02-25T05:44:47;5.13;;;2.03;;
43560;SDS011;32305;46.410;17.394;2023-02-25T05:47:14;3.17;;;1.75;;
43560;SDS011;32305;46.410;17.394;2023-02-25T05:49:42;3.08;;;1.50;;
43560;SDS011;32305;46.410;17.394;2023-02-25T05:52:09;2.95;;;1.70;;
43560;SDS011;32305;46.410;17.394;2023-02-25T05:54:38;4.53;;;1.57;;
43560;SDS011;32305;46.410;17.394;2023-02-25T05:57:05;2.08;;;1.20;;
43560;SDS011;32305;46.410;17.394;2023-02-25T05:59:33;1.90;;;1.70;;
43560;SDS011;32305;46.410;17.394;2023-02-25T06:02:02;2.40;;;1.30;;
43560;SDS011;32305;46.410;17.394;2023-02-25T06:04:29;4.35;;;1.60;;
43560;SDS011;32305;46.410;17.394;2023-02-25T06:06:57;2.90;;;1.50;;
43560;SDS011;32305;46.410;17.394;2023-02-25T06:09:24;2.95;;;1.60;;
43560;SDS011;32305;46.410;17.394;2023-02-25T06:11:52;5.38;;;1.63;;
43560;SDS011;32305;46.410;17.394;2023-02-25T06:14:19;5.70;;;1.95;;
43560;SDS011;32305;46.410;17.394;2023-02-25T06:16:46;2.35;;;1.63;;
43560;SDS011;32305;46.410;17.394;2023-02-25T06:19:14;1.50;;;1.38;;
43560;SDS011;32305;46.410;17.394;2023-02-25T06:21:42;4.18;;;1.90;;
43560;SDS011;32305;46.410;17.394;2023-02-25T06:24:09;2.60;;;1.45;;
43560;SDS011;32305;46.410;17.394;2023-02-25T06:26:36;5.18;;;1.60;;
43560;SDS011;32305;46.410;17.394;2023-02-25T06:31:37;2.75;;;1.50;;
43560;SDS011;32305;46.410;17.394;2023-02-25T06:34:04;5.20;;;1.85;;
43560;SDS011;32305;46.410;17.394;2023-02-25T06:36:32;1.58;;;1.45;;
43560;SDS011;32305;46.410;17.394;2023-02-25T06:38:59;3.38;;;1.95;;
43560;SDS011;32305;46.410;17.394;2023-02-25T06:41:26;4.07;;;2.28;;
43560;SDS011;32305;46.410;17.394;2023-02-25T06:43:54;3.58;;;2.08;;
43560;SDS011;32305;46.410;17.394;2023-02-25T06:46:22;3.15;;;1.65;;
43560;SDS011;32305;46.410;17.394;2023-02-25T06:48:51;7.28;;;2.53;;
43560;SDS011;32305;46.410;17.394;2023-02-25T06:51:19;6.28;;;2.40;;
43560;SDS011;32305;46.410;17.394;2023-02-25T06:53:46;2.97;;;2.10;;
43560;SDS011;32305;46.410;17.394;2023-02-25T06:56:13;3.33;;;1.98;;
43560;SDS011;32305;46.410;17.394;2023-02-25T06:58:41;2.63;;;1.85;;
43560;SDS011;32305;46.410;17.394;2023-02-25T07:01:10;2.65;;;2.30;;
43560;SDS011;32305;46.410;17.394;2023-02-25T07:06:07;2.95;;;1.98;;
43560;SDS011;32305;46.410;17.394;2023-02-25T07:08:34;4.10;;;2.10;;
43560;SDS011;32305;46.410;17.394;2023-02-25T07:13:54;4.15;;;2.13;;
43560;SDS011;32305;46.410;17.394;2023-02-25T07:16:22;4.53;;;1.85;;
43560;SDS011;32305;46.410;17.394;2023-02-25T07:18:50;2.63;;;1.92;;
43560;SDS011;32305;46.410;17.394;2023-02-25T07:21:18;3.63;;;1.70;;
43560;SDS011;32305;46.410;17.394;2023-02-25T07:23:46;3.88;;;2.20;;
43560;SDS011;32305;46.410;17.394;2023-02-25T07:26:14;2.67;;;1.40;;
43560;SDS011;32305;46.410;17.394;2023-02-25T07:28:42;2.00;;;1.30;;
43560;SDS011;32305;46.410;17.394;2023-02-25T07:31:16;2.15;;;1.42;;
43560;SDS011;32305;46.410;17.394;2023-02-25T07:33:45;2.80;;;1.98;;
43560;SDS011;32305;46.410;17.394;2023-02-25T07:36:13;5.00;;;1.70;;
43560;SDS011;32305;46.410;17.394;2023-02-25T07:38:41;2.42;;;1.30;;
43560;SDS011;32305;46.410;17.394;2023-02-25T07:41:10;3.42;;;1.40;;
43560;SDS011;32305;46.410;17.394;2023-02-25T07:43:39;1.33;;;1.23;;
43560;SDS011;32305;46.410;17.394;2023-02-25T07:46:07;1.65;;;1.23;;
43560;SDS011;32305;46.410;17.394;2023-02-25T07:48:35;4.68;;;1.60;;
43560;SDS011;32305;46.410;17.394;2023-02-25T07:51:06;2.58;;;1.23;;
43560;SDS011;32305;46.410;17.394;2023-02-25T07:53:36;2.13;;;1.20;;
43560;SDS011;32305;46.410;17.394;2023-02-25T07:56:07;3.15;;;1.38;;
43560;SDS011;32305;46.410;17.394;2023-02-25T07:58:35;2.15;;;1.60;;
43560;SDS011;32305;46.410;17.394;2023-02-25T08:01:06;2.17;;;1.33;;
43560;SDS011;32305;46.410;17.394;2023-02-25T08:03:35;2.00;;;1.27;;
43560;SDS011;32305;46.410;17.394;2023-02-25T08:06:02;2.28;;;1.27;;
43560;SDS011;32305;46.410;17.394;2023-02-25T08:08:34;3.38;;;1.25;;
43560;SDS011;32305;46.410;17.394;2023-02-25T08:11:05;2.05;;;0.90;;
43560;SDS011;32305;46.410;17.394;2023-02-25T08:13:34;1.15;;;0.90;;
43560;SDS011;32305;46.410;17.394;2023-02-25T08:16:05;1.02;;;0.90;;
43560;SDS011;32305;46.410;17.394;2023-02-25T08:18:34;3.20;;;1.15;;
43560;SDS011;32305;46.410;17.394;2023-02-25T08:21:02;1.25;;;0.98;;
43560;SDS011;32305;46.410;17.394;2023-02-25T08:23:30;1.48;;;1.38;;
43560;SDS011;32305;46.410;17.394;2023-02-25T08:25:57;1.90;;;1.05;;
43560;SDS011;32305;46.410;17.394;2023-02-25T08:28:25;1.17;;;0.80;;
43560;SDS011;32305;46.410;17.394;2023-02-25T08:30:59;1.00;;;0.85;;
43560;SDS011;32305;46.410;17.394;2023-02-25T08:33:27;2.08;;;0.65;;
43560;SDS011;32305;46.410;17.394;2023-02-25T08:35:55;1.33;;;0.82;;
43560;SDS011;32305;46.410;17.394;2023-02-25T08:38:30;0.75;;;0.75;;
43560;SDS011;32305;46.410;17.394;2023-02-25T08:40:58;1.10;;;0.57;;
43560;SDS011;32305;46.410;17.394;2023-02-25T08:43:26;2.20;;;0.95;;
43560;SDS011;32305;46.410;17.394;2023-02-25T08:45:53;1.52;;;0.82;;
43560;SDS011;32305;46.410;17.394;2023-02-25T08:48:21;0.68;;;0.68;;
43560;SDS011;32305;46.410;17.394;2023-02-25T08:50:49;0.68;;;0.60;;
43560;SDS011;32305;46.410;17.394;2023-02-25T08:53:16;3.10;;;0.50;;
43560;SDS011;32305;46.410;17.394;2023-02-25T08:55:44;1.38;;;0.65;;
43560;SDS011;32305;46.410;17.394;2023-02-25T08:58:12;0.98;;;0.65;;
43560;SDS011;32305;46.410;17.394;2023-02-25T09:00:40;0.70;;;0.40;;
43560;SDS011;32305;46.410;17.394;2023-02-25T09:03:07;1.27;;;0.60;;
43560;SDS011;32305;46.410;17.394;2023-02-25T09:05:34;0.73;;;0.50;;
43560;SDS011;32305;46.410;17.394;2023-02-25T09:08:03;0.50;;;0.50;;
43560;SDS011;32305;46.410;17.394;2023-02-25T09:10:30;0.50;;;0.50;;
43560;SDS011;32305;46.410;17.394;2023-02-25T09:13:14;0.30;;;0.30;;
43560;SDS011;32305;46.410;17.394;2023-02-25T09:15:42;0.82;;;0.40;;
43560;SDS011;32305;46.410;17.394;2023-02-25T09:18:09;1.17;;;0.47;;
43560;SDS011;32305;46.410;17.394;2023-02-25T09:20:39;0.40;;;0.40;;
43560;SDS011;32305;46.410;17.394;2023-02-25T09:23:06;0.50;;;0.45;;
43560;SDS011;32305;46.410;17.394;2023-02-25T09:25:37;1.25;;;0.57;;
43560;SDS011;32305;46.410;17.394;2023-02-25T09:28:04;0.77;;;0.40;;
43560;SDS011;32305;46.410;17.394;2023-02-25T09:30:33;0.95;;;0.30;;
43560;SDS011;32305;46.410;17.394;2023-02-25T09:33:00;0.40;;;0.40;;
43560;SDS011;32305;46.410;17.394;2023-02-25T09:35:27;0.22;;;0.20;;
43560;SDS011;32305;46.410;17.394;2023-02-25T09:37:54;0.57;;;0.57;;
43560;SDS011;32305;46.410;17.394;2023-02-25T09:40:22;1.17;;;0.30;;
43560;SDS011;32305;46.410;17.394;2023-02-25T09:42:53;0.98;;;0.28;;
43560;SDS011;32305;46.410;17.394;2023-02-25T09:45:34;0.20;;;0.20;;
43560;SDS011;32305;46.410;17.394;2023-02-25T09:48:08;0.63;;;0.40;;
43560;SDS011;32305;46.410;17.394;2023-02-25T09:50:52;0.73;;;0.40;;
43560;SDS011;32305;46.410;17.394;2023-02-25T09:53:44;0.70;;;0.40;;
43560;SDS011;32305;46.410;17.394;2023-02-25T09:56:15;0.20;;;0.20;;
43560;SDS011;32305;46.410;17.394;2023-02-25T09:58:56;0.10;;;0.10;;
43560;SDS011;32305;46.410;17.394;2023-02-25T10:01:29;0.45;;;0.20;;
43560;SDS011;32305;46.410;17.394;2023-02-25T10:06:41;0.30;;;0.30;;
43560;SDS011;32305;46.410;17.394;2023-02-25T10:09:20;0.63;;;0.20;;
43560;SDS011;32305;46.410;17.394;2023-02-25T10:12:07;0.22;;;0.20;;
43560;SDS011;32305;46.410;17.394;2023-02-25T10:15:14;2.33;;;0.40;;
43560;SDS011;32305;46.410;17.394;2023-02-25T10:18:02;0.30;;;0.30;;
43560;SDS011;32305;46.410;17.394;2023-02-25T10:21:01;0.63;;;0.45;;
43560;SDS011;32305;46.410;17.394;2023-02-25T10:23:46;0.45;;;0.40;;
43560;SDS011;32305;46.410;17.394;2023-02-25T10:26:25;2.15;;;0.52;;
43560;SDS011;32305;46.410;17.394;2023-02-25T10:29:04;0.75;;;0.57;;
43560;SDS011;32305;46.410;17.394;2023-02-25T10:31:33;1.75;;;0.35;;
43560;SDS011;32305;46.410;17.394;2023-02-25T10:34:11;3.15;;;0.35;;
43560;SDS011;32305;46.410;17.394;2023-02-25T10:36:46;0.63;;;0.30;;
43560;SDS011;32305;46.410;17.394;2023-02-25T10:39:18;0.93;;;0.35;;
43560;SDS011;32305;46.410;17.394;2023-02-25T10:41:45;2.35;;;0.80;;
43560;SDS011;32305;46.410;17.394;2023-02-25T10:44:14;1.17;;;0.20;;
43560;SDS011;32305;46.410;17.394;2023-02-25T10:46:48;0.60;;;0.40;;
43560;SDS011;32305;46.410;17.394;2023-02-25T10:49:25;2.20;;;1.02;;
43560;SDS011;32305;46.410;17.394;2023-02-25T10:52:04;0.73;;;0.43;;
43560;SDS011;32305;46.410;17.394;2023-02-25T10:54:44;3.55;;;0.60;;
43560;SDS011;32305;46.410;17.394;2023-02-25T10:57:15;0.73;;;0.40;;
43560;SDS011;32305;46.410;17.394;2023-02-25T10:59:44;3.72;;;1.05;;
43560;SDS011;32305;46.410;17.394;2023-02-25T11:02:25;0.63;;;0.45;;
43560;SDS011;32305;46.410;17.394;2023-02-25T11:04:56;7.38;;;0.60;;
43560;SDS011;32305;46.410;17.394;2023-02-25T11:10:16;2.45;;;0.55;;
43560;SDS011;32305;46.410;17.394;2023-02-25T11:12:47;0.68;;;0.60;;
43560;SDS011;32305;46.410;17.394;2023-02-25T11:15:16;1.00;;;0.95;;
43560;SDS011;32305;46.410;17.394;2023-02-25T11:18:18;1.30;;;1.20;;
43560;SDS011;32305;46.410;17.394;2023-02-25T11:20:52;1.52;;;1.27;;
43560;SDS011;32305;46.410;17.394;2023-02-25T11:23:32;2.20;;;1.10;;
43560;SDS011;32305;46.410;17.394;2023-02-25T11:26:13;1.00;;;0.90;;
43560;SDS011;32305;46.410;17.394;2023-02-25T11:28:45;2.38;;;1.27;;
43560;SDS011;32305;46.410;17.394;2023-02-25T11:31:16;1.33;;;1.23;;
43560;SDS011;32305;46.410;17.394;2023-02-25T11:33:50;1.17;;;1.08;;
43560;SDS011;32305;46.410;17.394;2023-02-25T11:36:23;2.50;;;1.15;;
43560;SDS011;32305;46.410;17.394;2023-02-25T11:39:04;1.33;;;1.13;;
43560;SDS011;32305;46.410;17.394;2023-02-25T11:41:38;1.95;;;1.20;;
43560;SDS011;32305;46.410;17.394;2023-02-25T11:44:11;2.65;;;1.27;;
43560;SDS011;32305;46.410;17.394;2023-02-25T11:46:48;1.60;;;1.15;;
43560;SDS011;32305;46.410;17.394;2023-02-25T11:49:27;1.70;;;1.13;;
43560;SDS011;32305;46.410;17.394;2023-02-25T11:52:11;2.00;;;0.90;;
43560;SDS011;32305;46.410;17.394;2023-02-25T11:54:51;1.27;;;1.17;;
43560;SDS011;32305;46.410;17.394;2023-02-25T11:57:40;1.50;;;1.20;;
43560;SDS011;32305;46.410;17.394;2023-02-25T12:00:36;1.80;;;1.42;;
43560;SDS011;32305;46.410;17.394;2023-02-25T12:03:22;1.50;;;1.40;;
43560;SDS011;32305;46.410;17.394;2023-02-25T12:09:15;1.58;;;1.38;;
43560;SDS011;32305;46.410;17.394;2023-02-25T12:12:25;1.45;;;1.17;;
43560;SDS011;32305;46.410;17.394;2023-02-25T12:15:20;1.92;;;1.30;;
43560;SDS011;32305;46.410;17.394;2023-02-25T12:18:25;1.75;;;1.42;;
43560;SDS011;32305;46.410;17.394;2023-02-25T12:21:25;3.10;;;1.90;;
43560;SDS011;32305;46.410;17.394;2023-02-25T12:24:19;2.33;;;2.00;;
43560;SDS011;32305;46.410;17.394;2023-02-25T12:30:28;2.25;;;1.75;;
43560;SDS011;32305;46.410;17.394;2023-02-25T12:39:16;1.90;;;1.40;;
43560;SDS011;32305;46.410;17.394;2023-02-25T12:45:08;1.85;;;1.45;;
43560;SDS011;32305;46.410;17.394;2023-02-25T12:48:07;1.25;;;1.00;;
43560;SDS011;32305;46.410;17.394;2023-02-25T12:50:55;1.75;;;1.58;;
43560;SDS011;32305;46.410;17.394;2023-02-25T12:56:55;1.67;;;1.58;;
43560;SDS011;32305;46.410;17.394;2023-02-25T13:06:05;3.10;;;1.90;;
43560;SDS011;32305;46.410;17.394;2023-02-25T13:09:04;2.42;;;1.80;;
43560;SDS011;32305;46.410;17.394;2023-02-25T13:11:58;2.03;;;1.80;;
43560;SDS011;32305;46.410;17.394;2023-02-25T13:14:55;2.10;;;1.70;;
43560;SDS011;32305;46.410;17.394;2023-02-25T13:20:49;2.13;;;1.75;;
43560;SDS011;32305;46.410;17.394;2023-02-25T13:32:56;2.47;;;1.80;;
43560;SDS011;32305;46.410;17.394;2023-02-25T13:35:52;2.65;;;1.92;;
43560;SDS011;32305;46.410;17.394;2023-02-25T13:41:46;2.08;;;1.52;;
43560;SDS011;32305;46.410;17.394;2023-02-25T13:44:50;2.10;;;1.85;;
43560;SDS011;32305;46.410;17.394;2023-02-25T13:47:59;2.85;;;1.92;;
43560;SDS011;32305;46.410;17.394;2023-02-25T13:54:05;1.63;;;1.45;;
43560;SDS011;32305;46.410;17.394;2023-02-25T14:03:42;2.25;;;2.05;;
43560;SDS011;32305;46.410;17.394;2023-02-25T14:06:42;1.85;;;1.42;;
43560;SDS011;32305;46.410;17.394;2023-02-25T14:09:34;1.67;;;1.58;;
43560;SDS011;32305;46.410;17.394;2023-02-25T14:15:18;1.80;;;1.70;;
43560;SDS011;32305;46.410;17.394;2023-02-25T14:24:22;1.90;;;1.70;;
43560;SDS011;32305;46.410;17.394;2023-02-25T14:27:05;1.83;;;1.73;;
43560;SDS011;32305;46.410;17.394;2023-02-25T14:30:05;2.80;;;1.88;;
43560;SDS011;32305;46.410;17.394;2023-02-25T14:33:08;2.33;;;1.60;;
43560;SDS011;32305;46.410;17.394;2023-02-25T14:36:24;2.13;;;1.70;;
43560;SDS011;32305;46.410;17.394;2023-02-25T14:39:04;2.50;;;2.22;;
43560;SDS011;32305;46.410;17.394;2023-02-25T14:44:44;2.05;;;1.58;;
43560;SDS011;32305;46.410;17.394;2023-02-25T14:47:21;2.10;;;1.90;;
43560;SDS011;32305;46.410;17.394;2023-02-25T14:50:11;2.10;;;1.90;;
43560;SDS011;32305;46.410;17.394;2023-02-25T14:52:50;1.77;;;1.50;;
43560;SDS011;32305;46.410;17.394;2023-02-25T14:58:51;2.70;;;1.50;;
43560;SDS011;32305;46.410;17.394;2023-02-25T15:04:59;1.92;;;1.50;;
43560;SDS011;32305;46.410;17.394;2023-02-25T15:11:06;2.10;;;1.65;;
43560;SDS011;32305;46.410;17.394;2023-02-25T15:14:02;2.13;;;1.95;;
43560;SDS011;32305;46.410;17.394;2023-02-25T15:19:49;2.08;;;1.88;;
43560;SDS011;32305;46.410;17.394;2023-02-25T15:22:35;1.30;;;1.20;;
43560;SDS011;32305;46.410;17.394;2023-02-25T15:27:55;1.70;;;1.30;;
43560;SDS011;32305;46.410;17.394;2023-02-25T15:30:25;2.33;;;1.75;;
43560;SDS011;32305;46.410;17.394;2023-02-25T15:35:51;1.98;;;1.45;;
43560;SDS011;32305;46.410;17.394;2023-02-25T15:38:21;1.50;;;1.40;;
43560;SDS011;32305;46.410;17.394;2023-02-25T15:41:44;2.28;;;1.45;;
43560;SDS011;32305;46.410;17.394;2023-02-25T15:44:25;2.03;;;1.50;;
43560;SDS011;32305;46.410;17.394;2023-02-25T15:47:25;2.30;;;1.40;;
43560;SDS011;32305;46.410;17.394;2023-02-25T15:49:48;1.60;;;1.50;;
43560;SDS011;32305;46.410;17.394;2023-02-25T15:55:20;1.95;;;1.60;;
43560;SDS011;32305;46.410;17.394;2023-02-25T15:58:49;1.90;;;1.52;;
43560;SDS011;32305;46.410;17.394;2023-02-25T16:01:21;5.05;;;1.55;;
43560;SDS011;32305;46.410;17.394;2023-02-25T16:03:51;2.20;;;1.65;;
43560;SDS011;32305;46.410;17.394;2023-02-25T16:06:23;1.50;;;1.35;;
43560;SDS011;32305;46.410;17.394;2023-02-25T16:09:07;1.90;;;1.58;;
43560;SDS011;32305;46.410;17.394;2023-02-25T16:11:46;1.48;;;1.20;;
43560;SDS011;32305;46.410;17.394;2023-02-25T16:14:26;2.15;;;2.00;;
43560;SDS011;32305;46.410;17.394;2023-02-25T16:17:16;2.60;;;1.60;;
43560;SDS011;32305;46.410;17.394;2023-02-25T16:19:46;1.40;;;1.30;;
43560;SDS011;32305;46.410;17.394;2023-02-25T16:22:20;1.55;;;1.45;;
43560;SDS011;32305;46.410;17.394;2023-02-25T16:24:50;2.28;;;1.52;;
43560;SDS011;32305;46.410;17.394;2023-02-25T16:30:36;1.75;;;1.65;;
43560;SDS011;32305;46.410;17.394;2023-02-25T16:33:24;2.22;;;1.50;;
43560;SDS011;32305;46.410;17.394;2023-02-25T16:36:17;1.98;;;1.73;;
43560;SDS011;32305;46.410;17.394;2023-02-25T16:39:11;1.63;;;1.52;;
43560;SDS011;32305;46.410;17.394;2023-02-25T16:41:45;1.95;;;1.48;;
43560;SDS011;32305;46.410;17.394;2023-02-25T16:44:17;1.88;;;1.15;;
43560;SDS011;32305;46.410;17.394;2023-02-25T16:46:54;1.55;;;1.45;;
43560;SDS011;32305;46.410;17.394;2023-02-25T16:49:25;1.30;;;1.20;;
43560;SDS011;32305;46.410;17.394;2023-02-25T16:52:00;1.95;;;1.52;;
43560;SDS011;32305;46.410;17.394;2023-02-25T16:54:31;1.60;;;1.50;;
43560;SDS011;32305;46.410;17.394;2023-02-25T16:57:02;1.42;;;1.10;;
43560;SDS011;32305;46.410;17.394;2023-02-25T16:59:36;1.42;;;1.30;;
43560;SDS011;32305;46.410;17.394;2023-02-25T17:04:51;2.05;;;1.65;;
43560;SDS011;32305;46.410;17.394;2023-02-25T17:07:24;1.27;;;1.17;;
43560;SDS011;32305;46.410;17.394;2023-02-25T17:09:57;1.65;;;1.23;;
43560;SDS011;32305;46.410;17.394;2023-02-25T17:12:29;1.80;;;1.48;;